createdAt,value
2018-02-04T00:00:25.032Z,89.2
2018-02-04T00:01:25.074Z,89.24
2018-02-04T00:02:24.998Z,89.47
2018-02-04T00:03:25.094Z,89.29
2018-02-04T00:04:25.049Z,89.19
2018-02-04T00:05:24.960Z,89.27
2018-02-04T00:06:24.949Z,89.39
2018-02-04T00:07:24.992Z,89.56
2018-02-04T00:08:25.032Z,89.57
2018-02-04T00:09:25.033Z,89.42
2018-02-04T00:10:25.089Z,89.32
2018-02-04T00:11:24.917Z,89.63
2018-02-04T00:12:25.504Z,89.64
2018-02-04T00:13:25.025Z,89.45
2018-02-04T00:14:25.124Z,89.3
2018-02-04T00:15:24.998Z,89.49
2018-02-04T00:16:24.985Z,89.59
2018-02-04T00:17:25.007Z,89.44
2018-02-04T00:18:25.052Z,89.41
2018-02-04T00:19:24.986Z,89.54
2018-02-04T00:20:25.120Z,89.46
2018-02-04T00:21:25.008Z,89.67
2018-02-04T00:22:25.135Z,89.67
2018-02-04T00:23:25.077Z,89.84
2018-02-04T00:24:25.120Z,89.76
2018-02-04T00:25:25.126Z,90.03
2018-02-04T00:26:25.026Z,90.01
2018-02-04T00:27:25.028Z,89.97
2018-02-04T00:28:25.168Z,89.97
2018-02-04T00:29:25.261Z,89.94
2018-02-04T00:30:25.289Z,90.16
2018-02-04T00:31:25.235Z,90.05
2018-02-04T00:32:25.177Z,89.74
2018-02-04T00:33:25.114Z,90
2018-02-04T00:34:25.156Z,90
2018-02-04T00:35:25.213Z,90.06
2018-02-04T00:36:25.114Z,90.03
2018-02-04T00:37:25.191Z,90.05
2018-02-04T00:38:25.196Z,90.13
2018-02-04T00:39:25.175Z,90.49
2018-02-04T00:40:25.208Z,90.44
2018-02-04T00:41:25.239Z,90.31
2018-02-04T00:42:25.203Z,90.19
2018-02-04T00:43:25.230Z,90.24
2018-02-04T00:44:25.183Z,90.55
2018-02-04T00:45:25.230Z,90.41
2018-02-04T00:46:25.251Z,90.38
2018-02-04T00:47:25.283Z,90.41
2018-02-04T00:48:25.152Z,90.27
2018-02-04T00:49:25.234Z,90.58
2018-02-04T00:50:25.157Z,90.53
2018-02-04T00:51:25.117Z,90.59
2018-02-04T00:52:25.174Z,90.49
2018-02-04T00:53:25.123Z,90.82
2018-02-04T00:54:25.206Z,90.67
2018-02-04T00:55:25.196Z,90.64
2018-02-04T00:56:25.153Z,90.51
2018-02-04T00:57:25.158Z,90.45
2018-02-04T00:58:25.134Z,90.31
2018-02-04T00:59:25.186Z,90.34
2018-02-04T01:00:25.347Z,90.51
2018-02-04T01:01:25.350Z,90.51
2018-02-04T01:02:25.257Z,90.94
2018-02-04T01:03:25.267Z,90.69
2018-02-04T01:04:25.344Z,90.74
2018-02-04T01:05:25.317Z,90.65
2018-02-04T01:06:25.483Z,90.61
2018-02-04T01:07:25.195Z,90.44
2018-02-04T01:08:25.235Z,90.25
2018-02-04T01:09:25.245Z,90.34
2018-02-04T01:10:25.331Z,90.41
2018-02-04T01:11:25.307Z,90.32
2018-02-04T01:12:25.372Z,90.09
2018-02-04T01:13:25.299Z,89.97
2018-02-04T01:14:25.341Z,90.17
2018-02-04T01:15:25.415Z,90.05
2018-02-04T01:16:25.915Z,89.89
2018-02-04T01:17:25.290Z,89.94
2018-02-04T01:18:25.314Z,90.1
2018-02-04T01:19:25.328Z,90.01
2018-02-04T01:20:25.288Z,90.05
2018-02-04T01:21:25.611Z,90.14
2018-02-04T01:22:25.333Z,90.19
2018-02-04T01:23:25.291Z,90.05
2018-02-04T01:24:25.185Z,90.27
2018-02-04T01:25:25.353Z,90.5
2018-02-04T01:26:25.259Z,90.27
2018-02-04T01:27:25.282Z,90.55
2018-02-04T01:28:25.279Z,90.37
2018-02-04T01:29:25.195Z,90.34
2018-02-04T01:30:25.275Z,90.69
2018-02-04T01:31:25.458Z,90.63
2018-02-04T01:32:25.344Z,90.6
2018-02-04T01:33:25.419Z,91.02
2018-02-04T01:34:25.340Z,90.69
2018-02-04T01:35:25.331Z,91.05
2018-02-04T01:36:25.456Z,91.15
2018-02-04T01:37:25.477Z,90.86
2018-02-04T01:38:25.428Z,91.15
2018-02-04T01:39:25.484Z,91.2
2018-02-04T01:40:25.377Z,91.1
2018-02-04T01:41:25.276Z,91.62
2018-02-04T01:42:25.317Z,91.5
2018-02-04T01:43:25.382Z,91.46
2018-02-04T01:44:25.420Z,91.13
2018-02-04T01:45:25.521Z,91.39
2018-02-04T01:46:25.446Z,91.22
2018-02-04T01:47:25.400Z,90.95
2018-02-04T01:48:25.357Z,90.99
2018-02-04T01:49:25.410Z,91.49
2018-02-04T01:50:25.369Z,91.43
2018-02-04T01:51:25.461Z,91.22
2018-02-04T01:52:25.415Z,91.27
2018-02-04T01:53:25.403Z,91.56
2018-02-04T01:54:25.304Z,91.68
2018-02-04T01:55:25.418Z,91.43
2018-02-04T01:56:25.432Z,91.6
2018-02-04T01:57:25.380Z,91.62
2018-02-04T01:58:25.374Z,91.85
2018-02-04T01:59:25.413Z,92.06
2018-02-04T02:00:25.420Z,92.03
2018-02-04T02:01:25.617Z,91.78
2018-02-04T02:02:25.444Z,91.92
2018-02-04T02:03:25.460Z,92.09
2018-02-04T02:04:25.485Z,91.85
2018-02-04T02:05:25.492Z,91.96
2018-02-04T02:06:25.714Z,91.85
2018-02-04T02:07:25.411Z,92.03
2018-02-04T02:08:25.523Z,92.38
2018-02-04T02:09:25.520Z,92.33
2018-02-04T02:10:25.475Z,92.43
2018-02-04T02:11:25.626Z,92.61
2018-02-04T02:12:25.489Z,92.5
2018-02-04T02:13:25.528Z,92.5
2018-02-04T02:14:25.605Z,92.46
2018-02-04T02:15:25.462Z,92.45
2018-02-04T02:16:25.503Z,92.47
2018-02-04T02:17:25.531Z,92.6
2018-02-04T02:18:25.525Z,92.71
2018-02-04T02:19:25.587Z,92.63
2018-02-04T02:20:25.514Z,92.57
2018-02-04T02:21:25.425Z,92.26
2018-02-04T02:22:25.426Z,92.37
2018-02-04T02:23:25.485Z,92.09
2018-02-04T02:24:25.520Z,92.58
2018-02-04T02:25:25.456Z,92.51
2018-02-04T02:26:25.464Z,92.34
2018-02-04T02:27:25.515Z,92.43
2018-02-04T02:28:25.464Z,92.59
2018-02-04T02:29:25.487Z,92.47
2018-02-04T02:30:25.561Z,92.06
2018-02-04T02:31:25.753Z,92.33
2018-02-04T02:32:25.609Z,92.03
2018-02-04T02:33:25.618Z,92.09
2018-02-04T02:34:25.636Z,92.11
2018-02-04T02:35:25.603Z,92.07
2018-02-04T02:36:25.628Z,91.66
2018-02-04T02:37:25.722Z,91.99
2018-02-04T02:38:25.661Z,92.07
2018-02-04T02:39:25.577Z,91.89
2018-02-04T02:40:25.629Z,91.83
2018-02-04T02:41:25.697Z,92.08
2018-02-04T02:42:25.607Z,91.97
2018-02-04T02:43:25.670Z,92.25
2018-02-04T02:44:25.693Z,92.24
2018-02-04T02:45:25.584Z,92.15
2018-02-04T02:46:25.591Z,92.01
2018-02-04T02:47:25.703Z,92.14
2018-02-04T02:48:25.546Z,92.1
2018-02-04T02:49:25.510Z,91.96
2018-02-04T02:50:25.662Z,92.04
2018-02-04T02:51:25.581Z,92.38
2018-02-04T02:52:25.770Z,92.31
2018-02-04T02:53:25.503Z,92.36
2018-02-04T02:54:25.579Z,92.49
2018-02-04T02:55:25.631Z,92.18
2018-02-04T02:56:25.556Z,92.31
2018-02-04T02:57:25.689Z,92.28
2018-02-04T02:58:25.569Z,92
2018-02-04T02:59:25.689Z,92
2018-02-04T03:00:25.936Z,92.19
2018-02-04T03:01:24.933Z,91.91
2018-02-04T03:02:24.954Z,92.14
2018-02-04T03:03:24.891Z,92.24
2018-02-04T03:04:24.943Z,92.27
2018-02-04T03:05:24.955Z,92.21
2018-02-04T03:06:24.886Z,91.91
2018-02-04T03:07:24.900Z,91.75
2018-02-04T03:08:24.906Z,91.94
2018-02-04T03:09:24.847Z,92.06
2018-02-04T03:10:24.843Z,92.46
2018-02-04T03:11:24.897Z,92.31
2018-02-04T03:12:25.224Z,92.17
2018-02-04T03:13:25.551Z,91.95
2018-02-04T03:14:24.957Z,92.07
2018-02-04T03:15:24.976Z,92.18
2018-02-04T03:16:25.048Z,91.83
2018-02-04T03:17:24.914Z,91.9
2018-02-04T03:18:24.947Z,92.06
2018-02-04T03:19:24.885Z,91.87
2018-02-04T03:20:24.806Z,91.75
2018-02-04T03:21:24.975Z,91.76
2018-02-04T03:22:24.936Z,91.75
2018-02-04T03:23:24.994Z,91.69
2018-02-04T03:24:25.066Z,91.55
2018-02-04T03:25:24.926Z,91.85
2018-02-04T03:26:24.913Z,91.84
2018-02-04T03:27:24.944Z,91.91
2018-02-04T03:28:24.887Z,91.85
2018-02-04T03:29:25.075Z,91.79
2018-02-04T03:30:24.982Z,91.95
2018-02-04T03:31:24.989Z,91.82
2018-02-04T03:32:25.034Z,91.64
2018-02-04T03:33:25.050Z,91.78
2018-02-04T03:34:25.108Z,91.69
2018-02-04T03:35:25.979Z,91.75
2018-02-04T03:36:25.073Z,92.04
2018-02-04T03:37:24.988Z,92.05
2018-02-04T03:38:25.125Z,91.87
2018-02-04T03:39:24.924Z,91.83
2018-02-04T03:40:24.971Z,91.92
2018-02-04T03:41:25.017Z,91.92
2018-02-04T03:42:25.012Z,91.82
2018-02-04T03:43:24.904Z,91.74
2018-02-04T03:44:25.091Z,91.9
2018-02-04T03:45:24.994Z,91.82
2018-02-04T03:46:25.016Z,91.66
2018-02-04T03:47:24.952Z,91.78
2018-02-04T03:48:24.991Z,91.63
2018-02-04T03:49:24.946Z,91.5
2018-02-04T03:50:24.902Z,91.66
2018-02-04T03:51:25.002Z,91.61
2018-02-04T03:52:24.966Z,91.84
2018-02-04T03:53:24.960Z,91.99
2018-02-04T03:54:24.975Z,91.84
2018-02-04T03:55:25.090Z,91.84
2018-02-04T03:56:25.073Z,91.86
2018-02-04T03:57:24.882Z,91.72
2018-02-04T03:58:25.009Z,91.73
2018-02-04T03:59:25.004Z,91.76
2018-02-04T04:00:25.074Z,91.89
2018-02-04T04:01:24.992Z,91.96
2018-02-04T04:02:24.923Z,92.02
2018-02-04T04:03:24.999Z,91.74
2018-02-04T04:04:24.996Z,91.84
2018-02-04T04:05:24.989Z,91.88
2018-02-04T04:06:24.961Z,91.69
2018-02-04T04:07:25.035Z,91.68
2018-02-04T04:08:25.001Z,91.66
2018-02-04T04:09:25.035Z,91.57
2018-02-04T04:10:25.015Z,91.42
2018-02-04T04:11:25.049Z,91.42
2018-02-04T04:12:24.950Z,91.33
2018-02-04T04:13:24.923Z,91.42
2018-02-04T04:14:25.016Z,91.49
2018-02-04T04:15:24.947Z,91.51
2018-02-04T04:16:24.951Z,91.51
2018-02-04T04:17:25.020Z,91.35
2018-02-04T04:18:25.131Z,91.34
2018-02-04T04:19:24.893Z,91.42
2018-02-04T04:20:24.992Z,91.45
2018-02-04T04:21:24.910Z,91.52
2018-02-04T04:22:25.037Z,91.64
2018-02-04T04:23:24.951Z,91.83
2018-02-04T04:24:24.893Z,91.75
2018-02-04T04:25:25.003Z,91.69
2018-02-04T04:26:24.920Z,91.51
2018-02-04T04:27:24.811Z,91.61
2018-02-04T04:28:25.011Z,91.61
2018-02-04T04:29:25.067Z,91.38
2018-02-04T04:30:25.008Z,91.24
2018-02-04T04:31:25.009Z,91.28
2018-02-04T04:32:25.008Z,91.27
2018-02-04T04:33:25.058Z,91.38
2018-02-04T04:34:25.109Z,91.54
2018-02-04T04:35:25.172Z,91.55
2018-02-04T04:38:25.094Z,91.39
2018-02-04T04:39:25.053Z,91.51
2018-02-04T04:40:25.024Z,91.37
2018-02-04T04:41:25.123Z,91.54
2018-02-04T04:42:25.106Z,91.44
2018-02-04T04:43:25.134Z,91.31
2018-02-04T04:44:25.032Z,91.46
2018-02-04T04:45:25.135Z,91.85
2018-02-04T04:46:25.137Z,91.58
2018-02-04T04:47:25.178Z,91.36
2018-02-04T04:48:25.096Z,91.35
2018-02-04T04:49:25.078Z,91.6
2018-02-04T04:50:25.073Z,91.68
2018-02-04T04:51:25.102Z,91.54
2018-02-04T04:52:25.134Z,91.68
2018-02-04T04:53:25.019Z,91.56
2018-02-04T04:54:25.134Z,91.53
2018-02-04T04:55:25.112Z,91.46
2018-02-04T04:56:24.999Z,91.56
2018-02-04T04:57:25.052Z,91.33
2018-02-04T04:58:25.143Z,91.3
2018-02-04T04:59:25.113Z,91.27
2018-02-04T05:00:25.135Z,91.46
2018-02-04T05:01:25.071Z,91.46
2018-02-04T05:02:25.118Z,91.26
2018-02-04T05:03:25.152Z,91.23
2018-02-04T05:04:25.168Z,91.48
2018-02-04T05:05:25.103Z,91.56
2018-02-04T05:06:25.093Z,91.77
2018-02-04T05:07:25.162Z,92.19
2018-02-04T05:08:25.274Z,92.03
2018-02-04T05:09:25.236Z,91.94
2018-02-04T05:10:25.300Z,91.94
2018-02-04T05:11:25.163Z,92.14
2018-02-04T05:12:25.246Z,92.25
2018-02-04T05:14:25.193Z,92.23
2018-02-04T05:15:25.136Z,92.18
2018-02-04T05:16:25.224Z,92.1
2018-02-04T05:17:25.249Z,92.36
2018-02-04T05:18:25.086Z,92.23
2018-02-04T05:19:25.232Z,92.2
2018-02-04T05:20:25.270Z,92.12
2018-02-04T05:21:25.198Z,91.92
2018-02-04T05:22:25.162Z,92.07
2018-02-04T05:23:25.280Z,92.05
2018-02-04T05:24:25.253Z,91.88
2018-02-04T05:25:25.229Z,92.2
2018-02-04T05:26:25.266Z,92.31
2018-02-04T05:27:25.134Z,92.31
2018-02-04T05:28:25.180Z,91.95
2018-02-04T05:29:25.213Z,91.97
2018-02-04T05:30:25.138Z,91.88
2018-02-04T05:31:25.263Z,91.78
2018-02-04T05:32:25.141Z,91.9
2018-02-04T05:33:25.280Z,91.77
2018-02-04T05:34:25.387Z,91.74
2018-02-04T05:35:25.300Z,92.08
2018-02-04T05:36:25.351Z,92.1
2018-02-04T05:37:25.302Z,92.01
2018-02-04T05:38:25.363Z,91.85
2018-02-04T05:39:25.426Z,91.79
2018-02-04T05:40:25.353Z,91.72
2018-02-04T05:41:25.330Z,91.98
2018-02-04T05:42:25.269Z,91.87
2018-02-04T05:43:25.256Z,91.9
2018-02-04T05:44:25.417Z,91.91
2018-02-04T05:45:25.533Z,91.69
2018-02-04T05:46:25.284Z,91.67
2018-02-04T05:47:25.331Z,91.89
2018-02-04T05:48:25.307Z,91.95
2018-02-04T05:49:25.310Z,91.8
2018-02-04T05:50:25.413Z,91.92
2018-02-04T05:51:25.266Z,91.91
2018-02-04T05:52:25.326Z,91.76
2018-02-04T05:53:25.315Z,91.67
2018-02-04T05:54:25.519Z,91.78
2018-02-04T05:55:25.423Z,91.72
2018-02-04T05:56:25.339Z,91.69
2018-02-04T05:57:25.461Z,91.65
2018-02-04T05:58:25.351Z,91.69
2018-02-04T05:59:25.319Z,91.69
2018-02-04T06:00:25.596Z,91.67
2018-02-04T06:01:25.293Z,91.52
2018-02-04T06:02:25.382Z,91.87
2018-02-04T06:03:25.341Z,91.9
2018-02-04T06:04:25.447Z,91.83
2018-02-04T06:05:25.378Z,91.69
2018-02-04T06:06:25.531Z,91.79
2018-02-04T06:07:25.402Z,91.74
2018-02-04T06:08:25.476Z,91.96
2018-02-04T06:09:25.429Z,91.98
2018-02-04T06:10:25.426Z,92.11
2018-02-04T06:11:25.396Z,92.32
2018-02-04T06:12:25.461Z,92.2
2018-02-04T06:13:25.350Z,92.01
2018-02-04T06:14:25.291Z,91.99
2018-02-04T06:15:25.338Z,92.01
2018-02-04T06:16:25.364Z,92.2
2018-02-04T06:17:25.400Z,92.11
2018-02-04T06:18:25.529Z,92.06
2018-02-04T06:19:25.419Z,92.07
2018-02-04T06:20:25.428Z,92.13
2018-02-04T06:21:25.385Z,92.05
2018-02-04T06:22:25.370Z,91.98
2018-02-04T06:23:25.405Z,92.16
2018-02-04T06:24:25.422Z,92.38
2018-02-04T06:25:25.515Z,92.21
2018-02-04T06:26:25.460Z,92.28
2018-02-04T06:27:25.451Z,92.29
2018-02-04T06:28:25.377Z,92.26
2018-02-04T06:29:25.369Z,92.25
2018-02-04T06:30:25.413Z,92.51
2018-02-04T06:31:25.420Z,92.64
2018-02-04T06:32:25.427Z,92.15
2018-02-04T06:33:25.457Z,92.09
2018-02-04T06:34:25.415Z,92.26
2018-02-04T06:35:25.649Z,92.61
2018-02-04T06:36:25.419Z,92.53
2018-02-04T06:37:25.531Z,92.26
2018-02-04T06:38:25.638Z,92.54
2018-02-04T06:39:25.632Z,92.51
2018-02-04T06:40:25.631Z,92.23
2018-02-04T06:41:25.629Z,92.16
2018-02-04T06:42:25.643Z,92.38
2018-02-04T06:43:25.650Z,92.66
2018-02-04T06:44:25.517Z,92.44
2018-02-04T06:45:25.706Z,92.45
2018-02-04T06:46:25.585Z,92.42
2018-02-04T06:47:25.501Z,92.56
2018-02-04T06:48:25.574Z,92.4
2018-02-04T06:49:25.756Z,92.25
2018-02-04T06:50:25.589Z,92.34
2018-02-04T06:51:25.610Z,92.47
2018-02-04T06:52:25.484Z,92.28
2018-02-04T06:53:25.534Z,92.36
2018-02-04T06:54:25.429Z,92.61
2018-02-04T06:55:25.470Z,92.78
2018-02-04T06:56:25.600Z,92.63
2018-02-04T06:57:25.646Z,92.77
2018-02-04T06:58:25.538Z,92.76
2018-02-04T06:59:25.786Z,92.65
2018-02-04T07:00:25.510Z,92.73
2018-02-04T07:01:25.570Z,92.77
2018-02-04T07:02:25.539Z,92.86
2018-02-04T07:03:25.536Z,92.72
2018-02-04T07:04:25.593Z,93.25
2018-02-04T07:05:25.600Z,92.79
2018-02-04T07:06:25.616Z,92.99
2018-02-04T07:07:25.589Z,92.71
2018-02-04T07:08:25.708Z,92.72
2018-02-04T07:09:25.617Z,92.81
2018-02-04T07:10:25.619Z,92.9
2018-02-04T07:11:25.680Z,92.67
2018-02-04T07:12:25.711Z,92.8
2018-02-04T07:13:25.549Z,93.04
2018-02-04T07:14:25.721Z,92.78
2018-02-04T07:15:25.692Z,93.06
2018-02-04T07:16:25.759Z,93.29
2018-02-04T07:17:25.624Z,93.3
2018-02-04T07:18:25.594Z,92.95
2018-02-04T07:19:25.634Z,92.72
2018-02-04T07:20:25.718Z,92.9
2018-02-04T07:21:25.502Z,92.7
2018-02-04T07:22:25.576Z,92.62
2018-02-04T07:23:25.666Z,92.73
2018-02-04T07:24:25.642Z,92.66
2018-02-04T07:25:25.585Z,92.61
2018-02-04T07:26:25.742Z,92.58
2018-02-04T07:27:25.596Z,92.75
2018-02-04T07:28:25.714Z,92.74
2018-02-04T07:29:25.553Z,92.71
2018-02-04T07:30:25.683Z,92.51
2018-02-04T07:31:25.537Z,92.56
2018-02-04T07:32:25.666Z,92.67
2018-02-04T07:33:25.721Z,92.6
2018-02-04T07:34:25.540Z,92.74
2018-02-04T07:35:25.733Z,92.55
2018-02-04T07:36:24.701Z,92.68
2018-02-04T07:37:24.758Z,92.73
2018-02-04T07:38:24.749Z,92.51
2018-02-04T07:39:24.711Z,92.74
2018-02-04T07:40:24.862Z,92.99
2018-02-04T07:41:24.770Z,93.05
2018-02-04T07:42:24.703Z,92.9
2018-02-04T07:43:24.751Z,92.94
2018-02-04T07:44:24.777Z,92.72
2018-02-04T07:45:24.763Z,92.71
2018-02-04T07:46:24.719Z,92.95
2018-02-04T07:47:24.736Z,92.98
2018-02-04T07:48:25.014Z,92.93
2018-02-04T07:49:24.664Z,92.8
2018-02-04T07:50:24.691Z,92.74
2018-02-04T07:51:24.734Z,92.82
2018-02-04T07:52:24.613Z,92.78
2018-02-04T07:53:25.000Z,92.77
2018-02-04T07:54:24.762Z,92.61
2018-02-04T07:55:24.763Z,92.85
2018-02-04T07:56:24.701Z,92.88
2018-02-04T07:57:24.751Z,92.98
2018-02-04T07:58:24.761Z,93.12
2018-02-04T07:59:24.716Z,92.94
2018-02-04T08:00:24.631Z,93.02
2018-02-04T08:01:24.747Z,92.91
2018-02-04T08:02:24.724Z,93.01
2018-02-04T08:03:24.760Z,92.9
2018-02-04T08:04:24.678Z,93.21
2018-02-04T08:05:24.761Z,93.19
2018-02-04T08:06:24.822Z,93.2
2018-02-04T08:07:24.644Z,93.07
2018-02-04T08:08:24.814Z,93.1
2018-02-04T08:09:24.760Z,93.1
2018-02-04T08:10:24.766Z,93.06
2018-02-04T08:11:24.713Z,93.21
2018-02-04T08:12:24.907Z,93.06
2018-02-04T08:13:24.978Z,92.97
2018-02-04T08:14:25.028Z,92.62
2018-02-04T08:15:24.648Z,92.54
2018-02-04T08:16:24.773Z,92.9
2018-02-04T08:17:24.884Z,92.89
2018-02-04T08:18:24.793Z,93.14
2018-02-04T08:19:24.932Z,93.17
2018-02-04T08:20:24.745Z,92.99
2018-02-04T08:21:24.839Z,92.97
2018-02-04T08:22:24.667Z,93.29
2018-02-04T08:23:24.808Z,93.27
2018-02-04T08:24:24.818Z,93.1
2018-02-04T08:25:24.834Z,93.07
2018-02-04T08:26:24.791Z,93.05
2018-02-04T08:27:24.794Z,93.6
2018-02-04T08:28:24.740Z,93.36
2018-02-04T08:29:24.649Z,93.17
2018-02-04T08:30:24.781Z,93.2
2018-02-04T08:31:24.824Z,93.32
2018-02-04T08:32:25.006Z,93.37
2018-02-04T08:33:24.779Z,92.94
2018-02-04T08:34:24.842Z,92.9
2018-02-04T08:35:24.718Z,93.18
2018-02-04T08:36:24.809Z,93.42
2018-02-04T08:37:24.829Z,93.3
2018-02-04T08:38:24.807Z,93.55
2018-02-04T08:39:24.825Z,92.78
2018-02-04T08:40:24.847Z,92.61
2018-02-04T08:41:24.778Z,92.36
2018-02-04T08:42:24.705Z,92.53
2018-02-04T08:43:24.858Z,92.71
2018-02-04T08:44:24.772Z,92.62
2018-02-04T08:45:25.075Z,92.41
2018-02-04T08:46:24.820Z,92.48
2018-02-04T08:47:24.859Z,92.44
2018-02-04T08:48:24.750Z,92.18
2018-02-04T08:49:24.875Z,92.05
2018-02-04T08:50:24.800Z,92.23
2018-02-04T08:51:24.771Z,92.3
2018-02-04T08:52:24.817Z,92.57
2018-02-04T08:53:24.866Z,92.69
2018-02-04T08:54:24.718Z,92.89
2018-02-04T08:55:24.863Z,92.99
2018-02-04T08:56:24.800Z,93.08
2018-02-04T08:57:24.829Z,93.13
2018-02-04T08:58:24.990Z,93.05
2018-02-04T08:59:24.770Z,93.09
2018-02-04T09:00:24.817Z,93.04
2018-02-04T09:01:24.822Z,93.14
2018-02-04T09:02:25.022Z,93.11
2018-02-04T09:03:24.835Z,92.9
2018-02-04T09:04:24.754Z,92.87
2018-02-04T09:05:24.837Z,92.9
2018-02-04T09:06:24.725Z,92.88
2018-02-04T09:07:24.943Z,92.9
2018-02-04T09:08:24.952Z,93.02
2018-02-04T09:09:24.941Z,93.06
2018-02-04T09:10:24.897Z,92.85
2018-02-04T09:11:25.071Z,92.8
2018-02-04T09:12:25.045Z,92.85
2018-02-04T09:13:24.836Z,92.57
2018-02-04T09:14:24.876Z,92.63
2018-02-04T09:15:24.909Z,92.82
2018-02-04T09:16:24.901Z,92.69
2018-02-04T09:17:25.004Z,92.72
2018-02-04T09:18:24.953Z,92.72
2018-02-04T09:19:24.943Z,92.72
2018-02-04T09:20:25.223Z,92.83
2018-02-04T09:21:25.052Z,92.73
2018-02-04T09:22:25.103Z,93.21
2018-02-04T09:23:24.942Z,93.08
2018-02-04T09:24:24.973Z,93.6
2018-02-04T09:25:25.061Z,94.21
2018-02-04T09:26:25.007Z,93.86
2018-02-04T09:27:25.073Z,94.05
2018-02-04T09:28:24.906Z,93.87
2018-02-04T09:29:25.018Z,93.97
2018-02-04T09:30:24.999Z,93.84
2018-02-04T09:31:24.982Z,93.78
2018-02-04T09:32:25.093Z,93.8
2018-02-04T09:33:25.206Z,93.77
2018-02-04T09:34:25.050Z,93.59
2018-02-04T09:35:25.021Z,93.62
2018-02-04T09:36:25.105Z,93.65
2018-02-04T09:37:24.991Z,93.62
2018-02-04T09:38:24.998Z,93.55
2018-02-04T09:39:25.021Z,93.59
2018-02-04T09:40:25.025Z,93.64
2018-02-04T09:41:24.894Z,93.63
2018-02-04T09:42:25.038Z,93.56
2018-02-04T09:43:25.020Z,93.63
2018-02-04T09:44:25.013Z,93.54
2018-02-04T09:45:25.007Z,93.62
2018-02-04T09:46:25.065Z,93.35
2018-02-04T09:47:25.014Z,93.39
2018-02-04T09:48:25.059Z,93.48
2018-02-04T09:49:25.063Z,93.41
2018-02-04T09:50:25.071Z,93.28
2018-02-04T09:51:24.997Z,93.28
2018-02-04T09:52:25.049Z,93.32
2018-02-04T09:53:25.054Z,93.33
2018-02-04T09:54:25.043Z,93.39
2018-02-04T09:55:25.322Z,93.33
2018-02-04T09:56:25.006Z,93.22
2018-02-04T09:57:25.296Z,93.08
2018-02-04T09:58:25.183Z,93.13
2018-02-04T09:59:25.109Z,93.06
2018-02-04T10:00:24.944Z,93.05
2018-02-04T10:01:24.955Z,93.11
2018-02-04T10:02:24.979Z,92.99
2018-02-04T10:03:25.043Z,93.28
2018-02-04T10:04:24.960Z,93.73
2018-02-04T10:05:25.479Z,93.57
2018-02-04T10:06:25.537Z,93.23
2018-02-04T10:07:25.598Z,93.5
2018-02-04T10:08:25.082Z,93.42
2018-02-04T10:09:25.018Z,93.42
2018-02-04T10:10:24.874Z,93.51
2018-02-04T10:11:25.023Z,93.52
2018-02-04T10:12:27.919Z,93.58
2018-02-04T10:13:24.898Z,93.64
2018-02-04T10:14:25.018Z,93.69
2018-02-04T10:15:24.941Z,93.34
2018-02-04T10:16:24.886Z,93.55
2018-02-04T10:17:24.973Z,93.67
2018-02-04T10:18:25.052Z,93.43
2018-02-04T10:19:24.895Z,93.53
2018-02-04T10:20:24.958Z,93.71
2018-02-04T10:21:24.984Z,93.88
2018-02-04T10:22:24.966Z,94.09
2018-02-04T10:23:25.059Z,94.6
2018-02-04T10:24:33.155Z,94.73
2018-02-04T10:25:25.048Z,94.29
2018-02-04T10:26:25.098Z,94.23
2018-02-04T10:27:24.929Z,94.67
2018-02-04T10:28:25.089Z,95.06
2018-02-04T10:29:25.038Z,95.47
2018-02-04T10:30:24.984Z,95.73
2018-02-04T10:31:25.071Z,96.04
2018-02-04T10:32:25.024Z,96.27
2018-02-04T10:33:29.214Z,95.82
2018-02-04T10:34:25.040Z,95.66
2018-02-04T10:35:25.068Z,96
2018-02-04T10:36:25.087Z,96.16
2018-02-04T10:37:24.979Z,96.18
2018-02-04T10:38:25.156Z,96.23
2018-02-04T10:39:25.142Z,96.32
2018-02-04T10:40:25.156Z,96.11
2018-02-04T10:41:25.124Z,95.98
2018-02-04T10:42:25.090Z,96.03
2018-02-04T10:43:25.115Z,95.93
2018-02-04T10:44:25.096Z,96.06
2018-02-04T10:45:25.112Z,96.29
2018-02-04T10:46:25.094Z,95.9
2018-02-04T10:47:25.115Z,96.06
2018-02-04T10:48:25.174Z,96.27
2018-02-04T10:49:25.194Z,96.14
2018-02-04T10:50:25.174Z,96.13
2018-02-04T10:51:25.197Z,96.29
2018-02-04T10:52:25.197Z,96.35
2018-02-04T10:53:25.146Z,96.22
2018-02-04T10:54:25.173Z,96.43
2018-02-04T10:55:25.152Z,96.06
2018-02-04T10:56:25.120Z,95.96
2018-02-04T10:57:25.131Z,95.65
2018-02-04T10:58:25.074Z,95.86
2018-02-04T10:59:25.122Z,95.77
2018-02-04T11:00:25.126Z,95.5
2018-02-04T11:01:25.065Z,95.77
2018-02-04T11:02:25.081Z,95.45
2018-02-04T11:03:25.075Z,95.68
2018-02-04T11:04:25.074Z,95.06
2018-02-04T11:05:25.087Z,94.58
2018-02-04T11:06:25.108Z,94.72
2018-02-04T11:07:25.081Z,94.51
2018-02-04T11:08:25.080Z,93.92
2018-02-04T11:09:25.128Z,94.01
2018-02-04T11:10:25.124Z,93.83
2018-02-04T11:11:25.158Z,93.48
2018-02-04T11:12:25.094Z,93.03
2018-02-04T11:13:25.142Z,93.13
2018-02-04T11:14:25.174Z,92.77
2018-02-04T11:15:25.182Z,92.03
2018-02-04T11:16:25.659Z,92.53
2018-02-04T11:17:25.326Z,92.14
2018-02-04T11:18:25.133Z,92.13
2018-02-04T11:19:25.269Z,92.19
2018-02-04T11:20:25.134Z,91.48
2018-02-04T11:21:25.201Z,91.96
2018-02-04T11:22:25.198Z,91.87
2018-02-04T11:23:25.216Z,92.2
2018-02-04T11:24:25.194Z,92.74
2018-02-04T11:25:25.240Z,92.81
2018-02-04T11:26:25.131Z,92.82
2018-02-04T11:27:25.126Z,92.29
2018-02-04T11:28:25.114Z,93.29
2018-02-04T11:29:25.118Z,92.8
2018-02-04T11:30:25.138Z,92.58
2018-02-04T11:31:25.255Z,92.99
2018-02-04T11:32:25.239Z,93.46
2018-02-04T11:33:25.230Z,93.4
2018-02-04T11:34:25.096Z,92.87
2018-02-04T11:35:25.148Z,92.81
2018-02-04T11:36:25.135Z,93.1
2018-02-04T11:37:25.129Z,92.73
2018-02-04T11:38:25.146Z,92.74
2018-02-04T11:39:25.235Z,92.85
2018-02-04T11:40:25.194Z,92.1
2018-02-04T11:41:25.065Z,92.39
2018-02-04T11:42:25.329Z,92.43
2018-02-04T11:43:24.926Z,92.5
2018-02-04T11:44:24.848Z,91.94
2018-02-04T11:45:24.984Z,90.95
2018-02-04T11:46:24.875Z,91.7
2018-02-04T11:47:25.051Z,90.69
2018-02-04T11:48:24.862Z,91.61
2018-02-04T11:49:24.974Z,91.74
2018-02-04T11:50:24.924Z,91.99
2018-02-04T11:51:24.908Z,91.98
2018-02-04T11:52:24.926Z,92.6
2018-02-04T11:53:24.872Z,92.39
2018-02-04T11:54:24.902Z,92.23
2018-02-04T11:55:24.919Z,92.44
2018-02-04T11:56:24.921Z,92.37
2018-02-04T11:57:24.832Z,92.21
2018-02-04T11:58:24.899Z,91.49
2018-02-04T11:59:24.861Z,92.35
2018-02-04T12:00:24.843Z,91.98
2018-02-04T12:01:24.843Z,92.17
2018-02-04T12:02:24.953Z,91.14
2018-02-04T12:03:24.839Z,90.24
2018-02-04T12:04:24.953Z,91.14
2018-02-04T12:05:25.288Z,91.99
2018-02-04T12:06:24.914Z,90.86
2018-02-04T12:07:24.980Z,90.46
2018-02-04T12:08:24.885Z,91.17
2018-02-04T12:09:24.988Z,91.21
2018-02-04T12:10:25.269Z,90.34
2018-02-04T12:11:24.931Z,91.13
2018-02-04T12:12:25.719Z,91.23
2018-02-04T12:13:25.673Z,89.97
2018-02-04T12:14:25.653Z,90.51
2018-02-04T12:15:25.603Z,91.43
2018-02-04T12:16:25.695Z,90.88
2018-02-04T12:17:25.727Z,89.94
2018-02-04T12:18:25.772Z,90.16
2018-02-04T12:19:28.291Z,90.57
2018-02-04T12:20:26.399Z,89.98
2018-02-04T12:21:26.099Z,90.4
2018-02-04T12:22:25.693Z,90.69
2018-02-04T12:23:25.666Z,90.26
2018-02-04T12:24:25.657Z,90.39
2018-02-04T12:25:25.667Z,90.91
2018-02-04T12:26:25.725Z,90.25
2018-02-04T12:27:25.693Z,90.16
2018-02-04T12:28:25.697Z,90.89
2018-02-04T12:29:25.749Z,91.37
2018-02-04T12:30:25.726Z,89.55
2018-02-04T12:31:26.037Z,89.71
2018-02-04T12:32:26.556Z,90.05
2018-02-04T12:33:26.140Z,89.54
2018-02-04T12:34:25.867Z,89.01
2018-02-04T12:35:25.989Z,90.3
2018-02-04T12:36:25.932Z,89.39
2018-02-04T12:37:26.064Z,88.52
2018-02-04T12:38:31.878Z,88.18
2018-02-04T12:39:25.974Z,88.89
2018-02-04T12:40:25.844Z,89.23
2018-02-04T12:41:26.288Z,88.95
2018-02-04T12:42:26.163Z,88.56
2018-02-04T12:43:25.680Z,88.16
2018-02-04T12:44:25.529Z,88.47
2018-02-04T12:45:25.796Z,89.56
2018-02-04T12:46:25.559Z,89.8
2018-02-04T12:47:25.420Z,89.28
2018-02-04T12:48:25.575Z,88.79
2018-02-04T12:49:25.432Z,89.35
2018-02-04T12:50:25.654Z,88.07
2018-02-04T12:51:25.476Z,87.91
2018-02-04T12:52:25.507Z,88.51
2018-02-04T12:53:25.604Z,88.55
2018-02-04T12:54:25.739Z,88.31
2018-02-04T12:55:25.665Z,88.08
2018-02-04T12:56:25.639Z,89.06
2018-02-04T12:57:25.980Z,88.59
2018-02-04T12:58:25.498Z,88.49